createdAt,value
2023-12-26T00:00:08.002Z,82.19
2023-12-26T00:02:35.853Z,82.15
2023-12-26T00:05:03.671Z,82.07
2023-12-26T00:07:31.448Z,82.06
2023-12-26T00:09:59.115Z,82.13
2023-12-26T00:12:26.678Z,82.25
2023-12-26T00:14:54.468Z,82.31
2023-12-26T00:17:22.196Z,82.27
2023-12-26T00:19:49.988Z,82.39
2023-12-26T00:22:17.523Z,82.36
2023-12-26T00:24:45.191Z,82.51
2023-12-26T00:27:12.887Z,82.54
2023-12-26T00:29:40.751Z,82.67
2023-12-26T00:32:08.670Z,82.79
2023-12-26T00:34:36.463Z,82.77
2023-12-26T00:37:04.239Z,82.80
2023-12-26T00:39:31.752Z,82.73
2023-12-26T00:41:59.589Z,82.73
2023-12-26T00:44:27.404Z,82.67
2023-12-26T00:46:55.052Z,82.65
2023-12-26T00:49:22.681Z,82.60
2023-12-26T00:51:50.481Z,82.56
2023-12-26T00:54:18.300Z,82.54
2023-12-26T00:56:46.028Z,82.49
2023-12-26T00:59:13.572Z,82.45
2023-12-26T01:01:41.119Z,82.37
2023-12-26T01:04:08.744Z,82.38
2023-12-26T01:06:36.446Z,82.31
2023-12-26T01:09:04.246Z,82.18
2023-12-26T01:11:31.889Z,82.07
2023-12-26T01:13:59.526Z,82.03
2023-12-26T01:16:27.080Z,81.94
2023-12-26T01:18:55.209Z,81.74
2023-12-26T01:21:23.133Z,81.74
2023-12-26T01:23:51.122Z,81.66
2023-12-26T01:26:18.647Z,81.48
2023-12-26T01:31:27.603Z,81.22
2023-12-26T01:33:55.457Z,80.99
2023-12-26T01:36:23.119Z,80.96
2023-12-26T01:38:51.106Z,80.92
2023-12-26T01:41:18.751Z,80.79
2023-12-26T01:43:46.303Z,80.61
2023-12-26T01:48:55.665Z,80.27
2023-12-26T01:51:23.368Z,80.14
2023-12-26T01:53:51.125Z,79.92
2023-12-26T01:56:18.743Z,79.54
2023-12-26T01:58:46.407Z,79.56
2023-12-26T02:01:14.085Z,79.38
2023-12-26T02:03:42.056Z,79.18
2023-12-26T02:06:09.673Z,79.24
2023-12-26T02:08:37.425Z,79.26
2023-12-26T02:11:05.244Z,79.27
2023-12-26T02:13:32.884Z,79.19
2023-12-26T02:16:00.545Z,79.22
2023-12-26T02:18:28.222Z,79.04
2023-12-26T02:20:55.992Z,79.11
2023-12-26T02:23:23.628Z,79.11
2023-12-26T02:25:51.610Z,79.13
2023-12-26T02:28:19.262Z,78.96
2023-12-26T02:30:46.852Z,79.00
2023-12-26T02:33:14.555Z,78.77
2023-12-26T02:35:42.259Z,78.61
2023-12-26T02:38:09.802Z,78.57
2023-12-26T02:40:37.457Z,78.58
2023-12-26T02:43:05.129Z,78.52
2023-12-26T02:45:32.687Z,78.31
2023-12-26T02:48:00.220Z,78.33
2023-12-26T02:50:28.008Z,78.13
2023-12-26T02:52:55.939Z,78.05
2023-12-26T02:55:23.737Z,77.97
2023-12-26T02:57:51.397Z,77.86
2023-12-26T03:00:19.114Z,77.99
2023-12-26T03:02:46.914Z,78.00
2023-12-26T03:05:14.647Z,78.18
2023-12-26T03:07:42.455Z,78.20
2023-12-26T03:10:10.150Z,78.22
2023-12-26T03:12:37.773Z,78.15
2023-12-26T03:15:05.447Z,78.33
2023-12-26T03:17:33.378Z,78.29
2023-12-26T03:20:01.020Z,78.22
2023-12-26T03:22:28.832Z,78.22
2023-12-26T03:24:56.397Z,78.24
2023-12-26T03:27:23.966Z,78.38
2023-12-26T03:29:52.064Z,78.37
2023-12-26T03:32:19.804Z,78.60
2023-12-26T03:34:47.865Z,78.75
2023-12-26T03:37:15.425Z,78.82
2023-12-26T03:39:43.120Z,78.97
2023-12-26T03:42:10.805Z,79.19
2023-12-26T03:44:38.589Z,79.32
2023-12-26T03:47:06.481Z,79.50
2023-12-26T03:49:34.243Z,79.65
2023-12-26T03:52:01.997Z,79.71
2023-12-26T03:54:29.562Z,79.81
2023-12-26T03:56:57.262Z,79.83
2023-12-26T03:59:24.897Z,79.91
2023-12-26T04:01:52.531Z,79.92
2023-12-26T04:04:20.452Z,79.77
2023-12-26T04:06:48.272Z,79.64
2023-12-26T04:09:15.629Z,79.43
2023-12-26T04:11:43.643Z,79.40
2023-12-26T04:14:11.456Z,79.29
2023-12-26T04:16:41.746Z,79.25
2023-12-26T04:19:11.279Z,79.24
2023-12-26T04:21:39.071Z,79.24
2023-12-26T04:24:06.764Z,79.17
2023-12-26T04:26:34.379Z,79.06
2023-12-26T04:29:02.034Z,79.20
2023-12-26T04:31:29.590Z,79.15
2023-12-26T04:33:57.285Z,79.20
2023-12-26T04:36:25.130Z,79.24
2023-12-26T04:38:52.905Z,79.26
2023-12-26T04:41:20.549Z,79.42
2023-12-26T04:43:48.104Z,79.40
2023-12-26T04:46:15.765Z,79.34
2023-12-26T04:48:43.413Z,79.31
2023-12-26T04:51:11.107Z,79.41
2023-12-26T04:53:38.818Z,79.39
2023-12-26T04:56:06.820Z,79.45
2023-12-26T04:58:34.611Z,79.48
2023-12-26T05:01:02.254Z,79.57
2023-12-26T05:03:29.851Z,79.58
2023-12-26T05:05:57.827Z,79.58
2023-12-26T05:08:25.671Z,79.64
2023-12-26T05:10:53.195Z,79.63
2023-12-26T05:13:20.908Z,79.51
2023-12-26T05:15:48.521Z,79.53
2023-12-26T05:18:16.585Z,79.56
2023-12-26T05:20:44.380Z,79.67
2023-12-26T05:23:11.914Z,79.69
2023-12-26T05:25:39.669Z,79.62
2023-12-26T05:28:07.339Z,79.64
2023-12-26T05:30:35.046Z,79.56
2023-12-26T05:33:03.237Z,79.53
2023-12-26T05:35:31.144Z,79.57
2023-12-26T05:37:58.696Z,79.61
2023-12-26T05:40:26.255Z,79.61
2023-12-26T05:42:56.224Z,79.75
2023-12-26T05:45:24.280Z,79.64
2023-12-26T05:47:52.015Z,79.72
2023-12-26T05:50:20.094Z,79.73
2023-12-26T05:52:47.847Z,79.77
2023-12-26T05:55:15.519Z,79.76
2023-12-26T05:57:43.169Z,79.86
2023-12-26T06:00:10.932Z,79.96
2023-12-26T06:02:38.714Z,79.99
2023-12-26T06:05:06.250Z,80.18
2023-12-26T06:07:33.923Z,80.26
2023-12-26T06:10:01.466Z,80.37
2023-12-26T06:12:29.132Z,80.45
2023-12-26T06:14:56.714Z,80.43
2023-12-26T06:17:24.305Z,80.44
2023-12-26T06:19:52.468Z,80.38
2023-12-26T06:22:20.176Z,80.23
2023-12-26T06:24:47.837Z,80.10
2023-12-26T06:27:15.593Z,80.00
2023-12-26T06:29:43.287Z,79.93
2023-12-26T06:32:10.936Z,79.80
2023-12-26T06:34:38.698Z,79.70
2023-12-26T06:37:06.358Z,79.55
2023-12-26T06:39:34.333Z,79.56
2023-12-26T06:42:01.914Z,79.48
2023-12-26T06:44:29.542Z,79.34
2023-12-26T06:46:57.106Z,79.30
2023-12-26T06:49:24.910Z,79.19
2023-12-26T06:51:52.527Z,79.19
2023-12-26T06:54:20.323Z,79.08
2023-12-26T06:56:48.018Z,78.95
2023-12-26T06:59:15.610Z,78.84
2023-12-26T07:01:43.474Z,78.78
2023-12-26T07:04:11.282Z,78.71
2023-12-26T07:06:38.956Z,78.56
2023-12-26T07:09:06.842Z,78.43
2023-12-26T07:11:34.531Z,78.14
2023-12-26T07:14:02.193Z,77.93
2023-12-26T07:16:29.758Z,77.72
2023-12-26T07:18:57.420Z,77.37
2023-12-26T07:21:25.171Z,77.27
2023-12-26T07:23:52.883Z,76.96
2023-12-26T07:26:20.913Z,76.38
2023-12-26T07:28:48.469Z,75.98
2023-12-26T07:31:16.138Z,76.01
2023-12-26T07:33:43.815Z,75.58
2023-12-26T07:36:11.541Z,75.44
2023-12-26T07:38:39.279Z,74.85
2023-12-26T07:41:07.090Z,74.48
2023-12-26T07:43:34.639Z,74.40
2023-12-26T07:46:02.504Z,73.99
2023-12-26T07:48:30.169Z,73.48
2023-12-26T07:50:58.073Z,73.33
2023-12-26T07:53:25.598Z,73.06
2023-12-26T07:55:53.265Z,73.27
2023-12-26T07:58:20.807Z,73.29
2023-12-26T08:00:48.595Z,73.66
2023-12-26T08:03:16.599Z,73.82
2023-12-26T08:05:44.729Z,73.79
2023-12-26T08:08:12.477Z,73.87
2023-12-26T08:10:40.142Z,73.99
2023-12-26T08:13:07.810Z,73.92
2023-12-26T08:15:35.475Z,73.96
2023-12-26T08:18:03.245Z,74.30
2023-12-26T08:20:31.101Z,74.07
2023-12-26T08:22:58.848Z,73.97
2023-12-26T08:25:26.821Z,73.91
2023-12-26T08:27:54.491Z,73.81
2023-12-26T08:30:22.121Z,73.80
2023-12-26T08:32:49.940Z,73.56
2023-12-26T08:35:17.517Z,73.12
2023-12-26T08:37:45.232Z,73.07
2023-12-26T08:40:12.795Z,73.11
2023-12-26T08:42:40.359Z,72.76
2023-12-26T08:45:08.272Z,72.27
2023-12-26T08:47:36.218Z,71.19
2023-12-26T08:50:03.949Z,70.52
2023-12-26T08:52:31.621Z,70.32
2023-12-26T08:54:59.258Z,70.09
2023-12-26T08:57:27.033Z,69.71
2023-12-26T08:59:54.636Z,69.29
2023-12-26T09:02:22.146Z,69.39
2023-12-26T09:04:50.155Z,69.28
2023-12-26T09:07:17.784Z,69.13
2023-12-26T09:09:45.436Z,69.11
2023-12-26T09:12:13.031Z,68.62
2023-12-26T09:14:40.742Z,68.47
2023-12-26T09:17:08.529Z,68.20
2023-12-26T09:19:36.380Z,67.98
2023-12-26T09:22:04.156Z,67.93
2023-12-26T09:24:31.732Z,67.58
2023-12-26T09:26:59.941Z,67.21
2023-12-26T09:29:27.651Z,66.95
2023-12-26T09:31:55.205Z,66.56
2023-12-26T09:34:22.896Z,66.88
2023-12-26T09:36:50.630Z,66.35
2023-12-26T09:39:18.138Z,66.69
2023-12-26T09:41:45.773Z,66.82
2023-12-26T09:44:13.412Z,66.06
2023-12-26T09:46:40.967Z,65.85
2023-12-26T09:49:15.739Z,66.07
2023-12-26T09:51:44.621Z,65.79
2023-12-26T09:54:12.361Z,65.51
2023-12-26T09:56:39.907Z,65.64
2023-12-26T09:59:07.575Z,65.47
2023-12-26T10:01:35.245Z,65.32
2023-12-26T10:04:02.909Z,64.77
2023-12-26T10:06:30.696Z,64.41
2023-12-26T10:08:58.341Z,64.15
2023-12-26T10:11:26.279Z,63.90
2023-12-26T10:13:53.886Z,64.02
2023-12-26T10:16:21.607Z,63.34
2023-12-26T10:18:49.310Z,63.62
2023-12-26T10:21:17.176Z,63.29
2023-12-26T10:23:44.842Z,63.04
2023-12-26T10:26:12.560Z,63.20
2023-12-26T10:28:40.244Z,63.19
2023-12-26T10:31:07.821Z,63.54
2023-12-26T10:33:35.809Z,63.40
2023-12-26T10:36:03.637Z,62.55
2023-12-26T10:38:31.069Z,62.93
2023-12-26T10:40:58.736Z,63.08
2023-12-26T10:43:26.293Z,63.05
2023-12-26T10:45:53.859Z,62.86
2023-12-26T10:48:21.514Z,63.07
2023-12-26T10:50:49.503Z,62.57
2023-12-26T10:53:17.467Z,62.96
2023-12-26T10:55:45.119Z,63.13
2023-12-26T10:58:12.769Z,63.25
2023-12-26T11:00:40.357Z,62.53
2023-12-26T11:03:08.227Z,63.10
2023-12-26T11:05:35.996Z,63.13
2023-12-26T11:08:03.633Z,63.37
2023-12-26T11:10:31.284Z,63.34
2023-12-26T11:12:58.948Z,63.12
2023-12-26T11:15:27.130Z,62.87
2023-12-26T11:17:54.841Z,63.16
2023-12-26T11:20:22.868Z,62.44
2023-12-26T11:22:50.519Z,62.42
2023-12-26T11:25:18.075Z,62.12
2023-12-26T11:27:45.748Z,62.17
2023-12-26T11:30:13.448Z,61.73
2023-12-26T11:32:41.367Z,61.68
2023-12-26T11:35:09.016Z,62.01
2023-12-26T11:37:36.993Z,62.25
2023-12-26T11:40:04.655Z,62.57
2023-12-26T11:42:32.381Z,62.89
2023-12-26T11:45:00.037Z,62.81
2023-12-26T11:47:27.748Z,62.80
2023-12-26T11:49:55.534Z,62.98
2023-12-26T11:52:23.166Z,62.61
2023-12-26T11:54:51.031Z,62.97
2023-12-26T11:57:18.678Z,63.20
2023-12-26T11:59:46.460Z,63.47
2023-12-26T12:02:14.023Z,63.71
2023-12-26T12:04:41.672Z,63.44
2023-12-26T12:07:09.263Z,63.56
2023-12-26T12:09:37.000Z,63.73
2023-12-26T12:12:04.684Z,63.91
2023-12-26T12:14:32.321Z,64.19
2023-12-26T12:17:00.402Z,64.53
2023-12-26T12:19:28.049Z,63.73
2023-12-26T12:21:55.910Z,64.06
2023-12-26T12:24:23.601Z,64.22
2023-12-26T12:26:51.383Z,64.02
2023-12-26T12:29:18.801Z,63.44
2023-12-26T12:31:46.561Z,63.83
2023-12-26T12:34:14.302Z,63.12
2023-12-26T12:36:42.088Z,63.01
2023-12-26T12:39:09.783Z,63.09
2023-12-26T12:41:37.726Z,62.70
2023-12-26T12:44:14.645Z,62.74
2023-12-26T12:46:45.642Z,62.67
2023-12-26T12:49:14.613Z,63.09
2023-12-26T12:51:43.343Z,63.09
2023-12-26T12:54:10.950Z,63.13
2023-12-26T12:56:38.640Z,63.22
2023-12-26T12:59:06.196Z,63.51
2023-12-26T13:01:34.063Z,63.66
2023-12-26T13:04:01.802Z,64.25
2023-12-26T13:06:29.641Z,64.58
2023-12-26T13:08:57.276Z,64.58
2023-12-26T13:11:24.897Z,64.77
2023-12-26T13:13:52.679Z,64.80
2023-12-26T13:16:20.248Z,64.91
2023-12-26T13:18:48.022Z,65.42
2023-12-26T13:21:15.783Z,65.64
2023-12-26T13:23:43.735Z,65.89
2023-12-26T13:26:11.391Z,67.75
2023-12-26T13:28:39.057Z,71.52
2023-12-26T13:31:07.467Z,73.22
2023-12-26T13:33:35.285Z,74.38
2023-12-26T13:36:03.243Z,75.44
2023-12-26T13:38:30.736Z,76.19
2023-12-26T13:40:58.285Z,76.86
2023-12-26T13:43:34.962Z,77.30
2023-12-26T13:46:05.577Z,77.55
2023-12-26T13:48:33.445Z,78.07
2023-12-26T13:51:01.335Z,78.01
2023-12-26T13:53:29.155Z,78.88
2023-12-26T13:55:56.839Z,78.42
2023-12-26T13:58:24.501Z,78.19
2023-12-26T14:00:52.216Z,78.29
2023-12-26T14:03:20.424Z,78.34
2023-12-26T14:05:48.300Z,78.34
2023-12-26T14:08:15.966Z,78.71
2023-12-26T14:10:43.641Z,78.81
2023-12-26T14:13:11.200Z,78.84
2023-12-26T14:15:38.965Z,79.31
2023-12-26T14:18:06.841Z,79.55
2023-12-26T14:20:34.494Z,79.56
2023-12-26T14:23:02.139Z,80.11
2023-12-26T14:25:30.206Z,80.32
2023-12-26T14:27:57.774Z,80.50
2023-12-26T14:30:25.557Z,80.86
2023-12-26T14:32:53.317Z,80.69
2023-12-26T14:35:21.123Z,80.86
2023-12-26T14:37:49.028Z,81.12
2023-12-26T14:40:16.611Z,81.26
2023-12-26T14:42:44.350Z,81.17
2023-12-26T14:45:12.357Z,81.59
2023-12-26T14:47:40.241Z,81.58
2023-12-26T14:50:08.106Z,81.53
2023-12-26T14:52:35.927Z,81.57
2023-12-26T14:55:03.469Z,81.79
2023-12-26T14:57:31.176Z,81.88
2023-12-26T14:59:59.221Z,82.02
2023-12-26T15:02:26.973Z,81.96
2023-12-26T15:04:54.844Z,81.88
2023-12-26T15:07:22.458Z,81.97
2023-12-26T15:09:50.050Z,82.05
2023-12-26T15:12:17.757Z,82.07
2023-12-26T15:14:47.108Z,82.20
2023-12-26T15:17:15.492Z,82.72
2023-12-26T15:19:43.489Z,82.89
2023-12-26T15:22:11.331Z,83.06
2023-12-26T15:24:38.943Z,83.17
2023-12-26T15:27:07.441Z,83.57
2023-12-26T15:29:35.134Z,83.83
2023-12-26T15:32:03.246Z,83.75
2023-12-26T15:34:31.292Z,83.70
2023-12-26T15:36:59.049Z,83.91
2023-12-26T15:39:28.438Z,83.73
2023-12-26T15:41:56.319Z,83.88
2023-12-26T15:44:23.965Z,83.89
2023-12-26T15:46:51.524Z,83.75
2023-12-26T15:49:19.304Z,83.75
2023-12-26T15:51:46.956Z,83.85
2023-12-26T15:54:14.603Z,84.09
2023-12-26T15:56:42.277Z,84.26
2023-12-26T15:59:09.935Z,84.32
2023-12-26T16:01:37.494Z,83.99
2023-12-26T16:04:05.303Z,83.55
2023-12-26T16:06:33.145Z,83.24
2023-12-26T16:09:00.941Z,83.07
2023-12-26T16:11:28.880Z,82.77
2023-12-26T16:13:56.619Z,82.48
2023-12-26T16:16:24.181Z,82.37
2023-12-26T16:18:51.956Z,82.15
2023-12-26T16:21:19.737Z,82.19
2023-12-26T16:23:47.406Z,82.02
2023-12-26T16:26:15.122Z,81.90
2023-12-26T16:28:42.681Z,81.80
2023-12-26T16:31:10.429Z,81.72
2023-12-26T16:33:38.758Z,80.96
2023-12-26T16:36:06.613Z,80.90
2023-12-26T16:38:34.262Z,79.90
2023-12-26T16:41:01.975Z,79.57
2023-12-26T16:43:29.587Z,79.36
2023-12-26T16:45:57.249Z,79.41
2023-12-26T16:48:24.911Z,79.41
2023-12-26T16:50:53.125Z,79.66
2023-12-26T16:53:20.731Z,79.81
2023-12-26T16:55:48.400Z,80.04
2023-12-26T16:58:15.953Z,80.35
2023-12-26T17:00:43.695Z,80.85
2023-12-26T17:03:11.463Z,81.03
2023-12-26T17:05:39.239Z,81.21
2023-12-26T17:08:07.006Z,81.29
2023-12-26T17:10:34.661Z,81.20
2023-12-26T17:13:02.656Z,81.00
2023-12-26T17:15:30.321Z,80.48
2023-12-26T17:17:58.108Z,80.06
2023-12-26T17:20:25.930Z,79.77
2023-12-26T17:22:53.897Z,79.69
2023-12-26T17:25:21.665Z,77.89
2023-12-26T17:27:49.224Z,76.42
2023-12-26T17:30:17.019Z,75.64
2023-12-26T17:32:44.715Z,75.62
2023-12-26T17:35:12.714Z,75.86
2023-12-26T17:37:40.282Z,75.50
2023-12-26T17:40:07.851Z,75.67
2023-12-26T17:42:35.617Z,75.62
2023-12-26T17:45:03.347Z,75.85
2023-12-26T17:47:31.158Z,75.86
2023-12-26T17:49:59.193Z,76.18
2023-12-26T17:52:26.969Z,76.79
2023-12-26T17:54:54.514Z,77.33
2023-12-26T17:57:22.300Z,77.76
2023-12-26T17:59:50.043Z,78.12
2023-12-26T18:02:17.698Z,78.40
2023-12-26T18:04:45.271Z,78.63
2023-12-26T18:07:12.829Z,78.67
2023-12-26T18:09:40.572Z,78.70
2023-12-26T18:12:08.702Z,78.85
2023-12-26T18:14:36.424Z,78.79
2023-12-26T18:17:04.097Z,78.98
2023-12-26T18:19:31.598Z,79.17
2023-12-26T18:21:59.392Z,79.21
2023-12-26T18:24:27.084Z,79.13
2023-12-26T18:26:54.847Z,79.15
2023-12-26T18:29:22.382Z,78.69
2023-12-26T18:31:49.950Z,77.62
2023-12-26T18:34:17.726Z,74.86
2023-12-26T18:36:45.574Z,71.41
2023-12-26T18:39:13.153Z,71.25
2023-12-26T18:41:40.800Z,70.68
2023-12-26T18:44:08.466Z,70.96
2023-12-26T18:46:36.119Z,70.97
2023-12-26T18:49:04.030Z,70.90
2023-12-26T18:51:31.836Z,71.56
2023-12-26T18:53:59.649Z,71.95
2023-12-26T18:56:27.174Z,71.85
2023-12-26T18:58:55.167Z,72.11
2023-12-26T19:01:22.728Z,72.25
2023-12-26T19:03:50.428Z,72.30
2023-12-26T19:06:18.245Z,72.27
2023-12-26T19:08:45.994Z,72.07
2023-12-26T19:11:13.672Z,72.36
2023-12-26T19:13:41.208Z,72.21
2023-12-26T19:16:08.867Z,71.29
2023-12-26T19:18:36.547Z,71.13
2023-12-26T19:21:04.404Z,70.38
2023-12-26T19:23:31.955Z,69.46
2023-12-26T19:25:59.522Z,69.56
2023-12-26T19:28:27.174Z,68.41
2023-12-26T19:30:54.922Z,68.33
2023-12-26T19:33:22.806Z,68.79
2023-12-26T19:35:50.602Z,69.76
2023-12-26T19:38:18.338Z,70.45
2023-12-26T19:40:46.195Z,70.87
2023-12-26T19:43:13.859Z,70.82
2023-12-26T19:45:41.420Z,70.36
2023-12-26T19:48:09.109Z,69.50
2023-12-26T19:50:36.857Z,69.59
2023-12-26T19:53:04.707Z,69.28
2023-12-26T19:55:32.683Z,69.09
2023-12-26T19:58:00.544Z,68.78
2023-12-26T20:00:28.702Z,68.57
2023-12-26T20:02:56.929Z,68.19
2023-12-26T20:05:25.391Z,67.95
2023-12-26T20:07:52.942Z,67.68
2023-12-26T20:10:20.588Z,67.09
2023-12-26T20:12:48.439Z,66.97
2023-12-26T20:15:16.125Z,66.80
2023-12-26T20:17:43.925Z,66.22
2023-12-26T20:20:12.177Z,65.87
2023-12-26T20:22:39.824Z,65.82
2023-12-26T20:25:07.473Z,65.95
2023-12-26T20:27:35.188Z,66.18
2023-12-26T20:30:03.046Z,66.30
2023-12-26T20:32:30.578Z,66.50
2023-12-26T20:34:58.123Z,66.25
2023-12-26T20:37:25.683Z,65.96
2023-12-26T20:39:53.652Z,65.74
2023-12-26T20:42:21.325Z,65.69
2023-12-26T20:44:48.992Z,65.71
2023-12-26T20:47:16.535Z,65.16
2023-12-26T20:49:44.252Z,65.19
2023-12-26T20:52:12.080Z,64.61
2023-12-26T20:54:39.795Z,64.33
2023-12-26T20:57:07.520Z,64.29
2023-12-26T20:59:35.661Z,63.98
2023-12-26T21:02:03.243Z,64.13
2023-12-26T21:04:31.098Z,64.00
2023-12-26T21:06:58.896Z,64.00
2023-12-26T21:09:26.526Z,64.02
2023-12-26T21:11:54.089Z,64.24
2023-12-26T21:14:21.737Z,64.08
2023-12-26T21:16:49.288Z,64.35
2023-12-26T21:19:17.084Z,64.45
2023-12-26T21:21:44.813Z,64.52
2023-12-26T21:24:12.552Z,64.73
2023-12-26T21:26:40.571Z,64.68
2023-12-26T21:29:08.211Z,64.49
2023-12-26T21:31:35.937Z,64.17
2023-12-26T21:34:04.288Z,63.92
2023-12-26T21:36:32.676Z,63.60
2023-12-26T21:39:00.821Z,63.06
2023-12-26T21:41:28.662Z,62.51
2023-12-26T21:43:56.325Z,62.64
2023-12-26T21:46:24.206Z,62.31
2023-12-26T21:48:52.041Z,62.39
2023-12-26T21:51:19.865Z,62.02
2023-12-26T21:53:47.508Z,62.39
2023-12-26T21:56:15.246Z,62.50
2023-12-26T21:58:42.811Z,62.65
2023-12-26T22:01:10.488Z,62.82
2023-12-26T22:03:38.098Z,62.86
2023-12-26T22:06:06.363Z,63.17
2023-12-26T22:08:34.167Z,63.43
2023-12-26T22:11:01.832Z,64.07
2023-12-26T22:13:29.405Z,64.63
2023-12-26T22:15:57.129Z,65.21
2023-12-26T22:18:25.131Z,65.92
2023-12-26T22:20:53.024Z,66.36
2023-12-26T22:23:20.649Z,66.79
2023-12-26T22:25:48.303Z,67.21
2023-12-26T22:28:16.292Z,67.71
2023-12-26T22:30:43.983Z,68.03
2023-12-26T22:33:11.844Z,68.19
2023-12-26T22:35:39.788Z,68.33
2023-12-26T22:38:07.337Z,68.68
2023-12-26T22:40:35.000Z,69.00
2023-12-26T22:43:02.579Z,69.10
2023-12-26T22:45:30.588Z,69.43
2023-12-26T22:47:59.254Z,69.77
2023-12-26T22:50:27.166Z,70.05
2023-12-26T22:52:54.826Z,70.39
2023-12-26T22:55:22.399Z,70.58
2023-12-26T22:57:50.070Z,70.84
2023-12-26T23:00:17.676Z,71.12
2023-12-26T23:02:45.384Z,71.19
2023-12-26T23:05:12.976Z,71.34
2023-12-26T23:07:41.107Z,70.77
2023-12-26T23:10:08.716Z,70.73
2023-12-26T23:12:36.455Z,70.63
2023-12-26T23:15:04.243Z,70.56
2023-12-26T23:17:32.211Z,70.36
2023-12-26T23:20:00.055Z,70.46
2023-12-26T23:22:27.693Z,70.36
2023-12-26T23:24:55.258Z,70.42
2023-12-26T23:27:22.923Z,70.44
2023-12-26T23:29:50.470Z,70.83
2023-12-26T23:32:18.137Z,71.23
2023-12-26T23:34:48.531Z,71.69
2023-12-26T23:37:17.062Z,71.87
2023-12-26T23:39:44.710Z,72.11
2023-12-26T23:42:12.592Z,72.29
2023-12-26T23:44:40.424Z,72.47
2023-12-26T23:47:08.091Z,72.70
2023-12-26T23:49:35.688Z,72.83
2023-12-26T23:52:03.312Z,72.88
2023-12-26T23:54:30.979Z,72.80
2023-12-26T23:56:58.697Z,72.84
2023-12-26T23:59:26.301Z,72.56
